Time;durP1;ratioP1;P1;durP2;ratioP2;P2;SDS_P1;SDS_P2;PMS_P1;PMS_P2;Temp;Humidity;BMP_temperature;BMP_pressure;BME280_temperature;BME280_humidity;BME280_pressure;Samples;Min_cycle;Max_cycle;Signal;HPM_P1;HPM_P2
2021/06/22 00:00:23;;;;;;;2.47;1.48;;;18.30;62.30;;;;;;4987511;28;20415;-80
2021/06/22 00:02:50;;;;;;;2.35;1.55;;;18.30;62.30;;;;;;4970296;28;20113;-80
2021/06/22 00:05:17;;;;;;;3.05;1.70;;;18.30;62.30;;;;;;4972924;28;20509;-80
2021/06/22 00:07:51;;;;;;;2.65;1.88;;;18.30;62.30;;;;;;4980760;28;20021;-78
2021/06/22 00:10:19;;;;;;;2.60;1.60;;;18.20;62.40;;;;;;4978889;28;20038;-80
2021/06/22 00:12:45;;;;;;;3.20;1.80;;;18.20;62.30;;;;;;4991204;28;20080;-80
2021/06/22 00:15:14;;;;;;;2.17;1.60;;;18.20;62.40;;;;;;4959056;28;20121;-79
2021/06/22 00:17:41;;;;;;;1.67;1.40;;;18.20;62.40;;;;;;4982931;28;20022;-80
2021/06/22 00:20:09;;;;;;;2.40;1.50;;;18.20;62.40;;;;;;4970516;28;20380;-79
2021/06/22 00:22:35;;;;;;;2.33;1.60;;;18.20;62.40;;;;;;4986267;28;20022;-80
2021/06/22 00:25:01;;;;;;;1.33;1.23;;;18.10;62.40;;;;;;4974974;28;20177;-80
2021/06/22 00:27:27;;;;;;;2.67;1.55;;;18.10;62.40;;;;;;4966939;28;20122;-79
2021/06/22 00:29:53;;;;;;;3.13;2.03;;;18.10;62.50;;;;;;4974343;28;20034;-79
2021/06/22 00:32:20;;;;;;;2.85;1.70;;;18.10;62.50;;;;;;4972917;28;20057;-79
2021/06/22 00:34:46;;;;;;;2.40;1.80;;;18.10;62.50;;;;;;4990909;28;20026;-80
2021/06/22 00:37:15;;;;;;;3.10;1.60;;;18.10;62.60;;;;;;4965582;28;20037;-80
2021/06/22 00:39:41;;;;;;;2.00;1.63;;;18.00;62.50;;;;;;4941029;28;20022;-79
2021/06/22 00:42:08;;;;;;;2.47;1.50;;;18.00;62.50;;;;;;4947249;28;20025;-80
2021/06/22 00:44:44;;;;;;;2.97;1.60;;;18.00;62.60;;;;;;4960310;28;20030;-80
2021/06/22 00:47:10;;;;;;;2.63;1.75;;;18.00;62.70;;;;;;4975175;28;20022;-80
2021/06/22 00:49:35;;;;;;;2.10;1.40;;;18.00;62.60;;;;;;4990659;28;20113;-79
2021/06/22 00:52:02;;;;;;;2.00;1.48;;;18.00;62.60;;;;;;4978720;28;20482;-79
2021/06/22 00:54:38;;;;;;;4.00;2.00;;;17.90;62.60;;;;;;4978180;28;20058;-79
2021/06/22 00:57:09;;;;;;;2.30;1.75;;;18.00;62.70;;;;;;4963915;28;20034;-79
2021/06/22 00:59:35;;;;;;;2.53;1.58;;;17.90;62.70;;;;;;4998852;28;20042;-79
2021/06/22 01:02:03;;;;;;;2.25;1.63;;;17.90;62.70;;;;;;4947114;28;20023;-79
2021/06/22 01:04:29;;;;;;;2.33;1.60;;;17.90;62.70;;;;;;4960900;28;20543;-79
2021/06/22 01:07:15;;;;;;;3.38;1.75;;;17.90;62.70;;;;;;4963489;28;20061;-79
2021/06/22 01:09:41;;;;;;;2.45;1.83;;;17.90;62.70;;;;;;4961314;28;20034;-79
2021/06/22 01:12:09;;;;;;;1.95;1.55;;;17.90;62.70;;;;;;4964692;28;20038;-79
2021/06/22 01:14:41;;;;;;;4.05;1.95;;;17.80;62.70;;;;;;4961806;28;20023;-79
2021/06/22 01:17:07;;;;;;;2.38;1.70;;;17.90;62.80;;;;;;4977752;28;20041;-80
2021/06/22 01:19:35;;;;;;;2.70;1.92;;;17.80;62.70;;;;;;4957055;28;20031;-80
2021/06/22 01:22:02;;;;;;;1.83;1.48;;;17.80;62.70;;;;;;4965651;28;20134;-79
2021/06/22 01:24:42;;;;;;;3.92;1.70;;;17.80;62.70;;;;;;4976446;28;20557;-79
2021/06/22 01:27:09;;;;;;;3.47;1.80;;;17.80;62.70;;;;;;4976211;28;20042;-79
2021/06/22 01:29:36;;;;;;;2.45;1.60;;;17.80;62.80;;;;;;4964194;28;20030;-80
2021/06/22 01:32:05;;;;;;;3.15;2.00;;;17.80;62.80;;;;;;4938471;28;20035;-80
2021/06/22 01:34:31;;;;;;;2.28;1.60;;;17.80;62.80;;;;;;4968543;28;20034;-80
2021/06/22 01:36:59;;;;;;;2.33;1.75;;;17.80;62.90;;;;;;4975742;28;20399;-79
2021/06/22 01:39:32;;;;;;;4.05;1.83;;;17.80;62.90;;;;;;4977147;28;20105;-80
2021/06/22 01:42:03;;;;;;;2.28;1.63;;;17.70;62.80;;;;;;4939708;28;20027;-79
2021/06/22 01:44:33;;;;;;;2.75;1.80;;;17.70;62.80;;;;;;4973953;28;20035;-80
2021/06/22 01:46:58;;;;;;;2.72;1.67;;;17.70;62.80;;;;;;4997011;28;20043;-79
2021/06/22 01:49:25;;;;;;;1.67;1.58;;;17.70;62.80;;;;;;4958536;28;20162;-80
2021/06/22 01:51:51;;;;;;;2.60;1.80;;;17.70;62.90;;;;;;4991331;28;20031;-79
2021/06/22 01:54:20;;;;;;;2.65;1.83;;;17.70;62.90;;;;;;4960617;28;20121;-80
2021/06/22 01:56:51;;;;;;;2.67;1.73;;;17.70;62.90;;;;;;4976490;28;20383;-80
2021/06/22 01:59:22;;;;;;;2.70;1.73;;;17.70;62.90;;;;;;4971453;28;20129;-80
2021/06/22 02:01:58;;;;;;;2.65;1.80;;;17.60;62.80;;;;;;4992041;28;20029;-80
2021/06/22 02:04:36;;;;;;;2.45;1.83;;;17.60;62.80;;;;;;4941648;28;20039;-80
2021/06/22 02:07:07;;;;;;;2.53;1.75;;;17.60;62.80;;;;;;4961849;28;20026;-79
2021/06/22 02:09:51;;;;;;;2.38;1.60;;;17.60;62.90;;;;;;4976240;28;20045;-79
2021/06/22 02:12:25;;;;;;;2.47;1.55;;;17.60;62.90;;;;;;4992314;28;20034;-79
2021/06/22 02:14:51;;;;;;;2.92;1.95;;;17.60;62.90;;;;;;4976274;28;20026;-79
2021/06/22 02:17:18;;;;;;;2.60;1.70;;;17.60;63.00;;;;;;4973283;28;20035;-80
2021/06/22 02:19:44;;;;;;;3.28;1.90;;;17.50;63.00;;;;;;4960093;28;20391;-79
2021/06/22 02:22:21;;;;;;;2.17;1.70;;;17.50;63.00;;;;;;4981744;28;20042;-79
2021/06/22 02:24:54;;;;;;;1.83;1.65;;;17.50;62.90;;;;;;4951015;28;20138;-79
2021/06/22 02:27:25;;;;;;;2.70;1.90;;;17.50;63.00;;;;;;4957102;28;20034;-80
2021/06/22 02:29:53;;;;;;;2.50;1.80;;;17.50;63.10;;;;;;4989293;28;20069;-79
2021/06/22 02:32:19;;;;;;;2.90;1.90;;;17.50;63.00;;;;;;4976491;28;20031;-79
2021/06/22 02:34:46;;;;;;;2.67;1.70;;;17.40;63.00;;;;;;4976464;28;20104;-79
2021/06/22 02:37:12;;;;;;;2.10;1.55;;;17.40;63.00;;;;;;4976527;28;20034;-79
2021/06/22 02:39:42;;;;;;;2.30;1.67;;;17.40;63.00;;;;;;4967168;28;20058;-79
2021/06/22 02:42:08;;;;;;;2.70;1.77;;;17.40;63.10;;;;;;4958489;28;20045;-79
2021/06/22 02:44:35;;;;;;;2.92;1.90;;;17.40;63.10;;;;;;4938815;28;20109;-79
2021/06/22 02:47:01;;;;;;;3.03;1.73;;;17.40;63.10;;;;;;4975770;28;20487;-79
2021/06/22 02:49:27;;;;;;;2.80;1.98;;;17.40;63.10;;;;;;4971968;28;20034;-79
2021/06/22 02:51:53;;;;;;;2.30;1.70;;;17.30;63.10;;;;;;4959794;28;20467;-80
2021/06/22 02:54:19;;;;;;;2.47;1.70;;;17.30;63.10;;;;;;4943268;28;20423;-79
2021/06/22 02:56:45;;;;;;;2.10;1.65;;;17.30;63.10;;;;;;4968019;28;20030;-80
2021/06/22 02:59:11;;;;;;;3.33;1.80;;;17.30;63.10;;;;;;4967220;28;20031;-80
2021/06/22 03:01:37;;;;;;;2.58;1.70;;;17.30;63.10;;;;;;4966744;28;20033;-79
2021/06/22 03:04:04;;;;;;;2.75;2.10;;;17.30;63.10;;;;;;4942797;28;20870;-79
2021/06/22 03:06:30;;;;;;;3.42;2.10;;;17.30;63.10;;;;;;4976018;28;20034;-80
2021/06/22 03:09:14;;;;;;;1.83;1.65;;;17.30;63.10;;;;;;4948153;28;20022;-79
2021/06/22 03:11:46;;;;;;;1.75;1.50;;;17.20;63.00;;;;;;4960501;28;20483;-81
2021/06/22 03:14:17;;;;;;;2.63;1.70;;;17.30;63.10;;;;;;4959116;28;20045;-79
2021/06/22 03:17:09;;;;;;;1.95;1.70;;;17.20;63.10;;;;;;4983222;28;20129;-80
2021/06/22 03:19:40;;;;;;;2.60;1.60;;;17.20;63.70;;;;;;4959925;28;20046;-80
2021/06/22 03:22:07;;;;;;;3.33;1.70;;;17.20;63.10;;;;;;4972486;28;20038;-79
2021/06/22 03:24:34;;;;;;;2.72;1.80;;;17.20;63.20;;;;;;4971406;28;20046;-80
2021/06/22 03:27:01;;;;;;;2.95;1.90;;;17.20;63.20;;;;;;4961833;28;20046;-80
2021/06/22 03:29:34;;;;;;;2.38;1.60;;;17.20;63.20;;;;;;4949442;28;20138;-80
2021/06/22 03:32:05;;;;;;;2.45;1.80;;;17.10;63.10;;;;;;4941782;28;20109;-79
2021/06/22 03:34:31;;;;;;;2.60;1.65;;;17.10;63.10;;;;;;4958689;28;20043;-79
2021/06/22 03:36:57;;;;;;;2.90;1.77;;;17.10;63.20;;;;;;4959061;28;20487;-79
2021/06/22 03:39:23;;;;;;;1.63;1.40;;;17.10;63.20;;;;;;4959667;28;20035;-79
2021/06/22 03:41:51;;;;;;;2.28;1.60;;;17.10;63.20;;;;;;4958379;28;20364;-79
2021/06/22 03:44:16;;;;;;;2.53;1.77;;;17.10;63.20;;;;;;4982549;28;20038;-79
2021/06/22 03:46:59;;;;;;;2.55;1.67;;;17.10;63.30;;;;;;4975081;28;20034;-79
2021/06/22 03:49:26;;;;;;;2.47;1.75;;;17.10;63.30;;;;;;4952304;28;20041;-80
2021/06/22 03:51:53;;;;;;;2.28;1.73;;;17.10;63.30;;;;;;4961030;28;20030;-80
2021/06/22 03:54:19;;;;;;;3.05;1.75;;;17.00;63.30;;;;;;4961657;28;20027;-79
2021/06/22 03:56:46;;;;;;;3.60;2.10;;;17.00;63.30;;;;;;4973664;28;20029;-79
2021/06/22 03:59:26;;;;;;;2.78;1.77;;;17.00;63.30;;;;;;4959334;28;20064;-79
2021/06/22 04:01:52;;;;;;;3.05;1.88;;;17.00;63.30;;;;;;4962023;28;20031;-80
2021/06/22 04:04:18;;;;;;;2.42;1.70;;;17.00;63.40;;;;;;4982305;28;20387;-80
2021/06/22 04:06:54;;;;;;;2.33;1.60;;;17.00;63.40;;;;;;4975930;28;20039;-79
2021/06/22 04:09:25;;;;;;;2.55;1.80;;;17.00;63.40;;;;;;4960285;28;20050;-79
2021/06/22 04:11:55;;;;;;;2.75;1.77;;;17.00;63.40;;;;;;4969312;28;20121;-80
2021/06/22 04:14:21;;;;;;;2.58;1.88;;;17.00;63.40;;;;;;4963473;28;20411;-79
2021/06/22 04:16:47;;;;;;;2.17;1.55;;;17.00;63.40;;;;;;4978988;28;20084;-79
2021/06/22 04:19:13;;;;;;;2.20;1.48;;;16.90;63.30;;;;;;4962043;28;20506;-79
2021/06/22 04:21:40;;;;;;;2.25;1.60;;;16.90;64.00;;;;;;4936127;28;20046;-79
2021/06/22 04:24:16;;;;;;;4.22;2.20;;;16.90;63.30;;;;;;4994333;28;20030;-78
2021/06/22 04:26:42;;;;;;;2.03;1.60;;;16.90;63.40;;;;;;4977035;28;20039;-80
2021/06/22 04:29:08;;;;;;;1.80;1.65;;;16.90;63.40;;;;;;4970485;28;20043;-79
2021/06/22 04:31:34;;;;;;;4.45;2.20;;;16.90;63.40;;;;;;4940609;28;20027;-79
2021/06/22 04:33:59;;;;;;;2.35;1.65;;;16.90;63.40;;;;;;4950126;28;20089;-79
2021/06/22 04:36:25;;;;;;;4.38;1.90;;;16.90;63.40;;;;;;4963709;28;20041;-79
2021/06/22 04:38:51;;;;;;;2.85;1.88;;;16.90;63.40;;;;;;4963729;28;20062;-79
2021/06/22 04:41:17;;;;;;;2.78;1.88;;;16.90;63.40;;;;;;4965446;28;20423;-79
2021/06/22 04:43:42;;;;;;;3.28;1.85;;;16.90;63.40;;;;;;4978558;28;20050;-85
2021/06/22 04:46:09;;;;;;;3.35;1.70;;;16.80;63.30;;;;;;4961884;28;20038;-78
2021/06/22 04:48:38;;;;;;;2.97;2.10;;;16.80;63.40;;;;;;4978308;28;20035;-79
2021/06/22 04:51:04;;;;;;;2.75;1.83;;;16.80;63.40;;;;;;4962064;28;20030;-80
2021/06/22 04:53:29;;;;;;;3.97;2.55;;;16.80;63.40;;;;;;4965888;28;20037;-81
2021/06/22 04:55:55;;;;;;;3.13;2.10;;;16.80;63.40;;;;;;4957917;28;20519;-83
2021/06/22 04:58:21;;;;;;;2.65;1.90;;;16.80;63.40;;;;;;4994490;28;20038;-82
2021/06/22 05:00:47;;;;;;;3.03;2.10;;;16.80;63.40;;;;;;4961549;28;20399;-81
2021/06/22 05:03:13;;;;;;;3.47;2.10;;;16.80;63.40;;;;;;4981081;28;20030;-83
2021/06/22 05:05:39;;;;;;;4.10;2.40;;;16.80;63.40;;;;;;4964007;28;20049;-83
2021/06/22 05:08:04;;;;;;;3.25;2.20;;;16.80;63.50;;;;;;4985310;28;20042;-83
2021/06/22 05:10:30;;;;;;;3.35;2.10;;;16.80;63.50;;;;;;4959497;28;20125;-84
2021/06/22 05:12:56;;;;;;;2.83;2.03;;;16.80;63.50;;;;;;4977023;28;20037;-83
2021/06/22 05:15:22;;;;;;;3.75;2.35;;;16.80;63.60;;;;;;4978866;28;20390;-83
2021/06/22 05:17:47;;;;;;;3.03;2.10;;;16.80;63.60;;;;;;4994613;28;20060;-82
2021/06/22 05:20:13;;;;;;;4.25;2.63;;;16.80;63.60;;;;;;4996253;28;20023;-85
2021/06/22 05:22:39;;;;;;;3.22;2.38;;;16.80;63.60;;;;;;4980085;28;20031;-90
2021/06/22 05:25:06;;;;;;;3.15;1.98;;;16.80;63.60;;;;;;4971848;28;20241;-90
2021/06/22 05:27:32;;;;;;;3.88;2.65;;;16.80;63.60;;;;;;4959165;28;20039;-87
2021/06/22 05:29:57;;;;;;;4.20;2.72;;;16.80;63.60;;;;;;4943828;28;20113;-83
2021/06/22 05:32:23;;;;;;;3.97;2.60;;;16.90;63.60;;;;;;4970079;28;20031;-82
2021/06/22 05:34:49;;;;;;;4.35;2.35;;;16.90;63.60;;;;;;4959928;28;20059;-86
2021/06/22 05:37:15;;;;;;;3.92;2.53;;;16.90;63.60;;;;;;4949483;28;20034;-86
2021/06/22 05:39:40;;;;;;;4.57;2.60;;;16.90;63.60;;;;;;4975298;28;20086;-85
2021/06/22 05:42:06;;;;;;;3.63;2.50;;;16.90;63.60;;;;;;4959208;28;20057;-85
2021/06/22 05:44:32;;;;;;;3.70;2.60;;;16.90;63.60;;;;;;4975650;28;20050;-86
2021/06/22 05:46:58;;;;;;;3.30;2.50;;;17.00;63.60;;;;;;4959239;28;20035;-86
2021/06/22 05:49:24;;;;;;;3.80;2.65;;;16.90;63.60;;;;;;4940254;28;20043;-86
2021/06/22 05:51:51;;;;;;;4.20;2.97;;;17.00;63.60;;;;;;4956243;28;20027;-85
2021/06/22 05:54:17;;;;;;;5.00;2.95;;;17.00;63.60;;;;;;4959258;28;20097;-86
2021/06/22 05:56:43;;;;;;;4.72;2.83;;;17.00;63.60;;;;;;4958530;28;20026;-86
2021/06/22 05:59:08;;;;;;;3.88;2.70;;;17.00;63.60;;;;;;4962514;28;20109;-86
2021/06/22 06:01:34;;;;;;;4.38;2.78;;;17.00;63.60;;;;;;4959367;28;20516;-84
2021/06/22 06:04:00;;;;;;;3.85;2.90;;;17.00;63.60;;;;;;4955787;28;20020;-85
2021/06/22 06:06:26;;;;;;;4.88;3.03;;;17.10;63.60;;;;;;4941458;28;20491;-85
2021/06/22 06:08:51;;;;;;;4.10;2.92;;;17.10;63.60;;;;;;4959465;28;20039;-85
2021/06/22 06:11:17;;;;;;;4.57;2.78;;;17.10;63.60;;;;;;4963433;28;20026;-85
2021/06/22 06:13:43;;;;;;;4.40;2.80;;;17.20;63.60;;;;;;4955486;29;20678;-85
2021/06/22 06:16:09;;;;;;;4.15;3.00;;;17.20;63.60;;;;;;4970912;28;20480;-80
2021/06/22 06:18:34;;;;;;;3.83;3.03;;;17.20;63.60;;;;;;4985242;28;20395;-82
2021/06/22 06:21:01;;;;;;;4.38;3.08;;;17.20;63.50;;;;;;4958354;28;20031;-81
2021/06/22 06:23:34;;;;;;;4.40;3.10;;;17.20;63.50;;;;;;4969899;28;20015;-83
2021/06/22 06:26:00;;;;;;;4.28;2.80;;;17.30;63.60;;;;;;4967944;28;20043;-82
2021/06/22 06:28:29;;;;;;;3.97;3.20;;;17.30;63.50;;;;;;4973871;28;20045;-82
2021/06/22 06:30:55;;;;;;;4.82;3.38;;;17.30;63.50;;;;;;4957911;28;20090;-83
2021/06/22 06:33:21;;;;;;;4.80;2.92;;;17.30;63.40;;;;;;4976034;28;20024;-84
2021/06/22 06:35:46;;;;;;;4.32;3.00;;;17.40;63.50;;;;;;4979960;28;20038;-83
2021/06/22 06:38:12;;;;;;;4.47;3.20;;;17.40;63.40;;;;;;4973660;28;20444;-82
2021/06/22 06:40:38;;;;;;;4.53;2.85;;;17.40;63.40;;;;;;4973938;28;20039;-82
2021/06/22 06:43:04;;;;;;;5.07;3.40;;;17.40;63.40;;;;;;4958097;28;20023;-84
2021/06/22 06:45:30;;;;;;;4.97;3.47;;;17.50;63.40;;;;;;4987522;28;20035;-83
2021/06/22 06:47:57;;;;;;;4.90;3.28;;;17.50;63.30;;;;;;4941889;28;20480;-83
2021/06/22 06:50:22;;;;;;;4.72;3.20;;;17.50;63.20;;;;;;4957366;28;20109;-83
2021/06/22 06:52:49;;;;;;;8.45;3.30;;;17.50;63.20;;;;;;4941616;28;20035;-84
2021/06/22 06:58:00;;;;;;;4.70;3.13;;;17.60;63.20;;;;;;4974925;28;20042;-82
2021/06/22 07:00:29;;;;;;;5.07;3.28;;;17.60;63.20;;;;;;4973089;28;20543;-82
2021/06/22 07:02:55;;;;;;;5.90;3.58;;;17.70;63.10;;;;;;4973489;28;20482;-82
2021/06/22 07:05:22;;;;;;;4.43;3.40;;;17.70;63.10;;;;;;4940598;28;20074;-82
2021/06/22 07:07:48;;;;;;;4.88;3.15;;;17.70;63.10;;;;;;4973917;28;20101;-88
2021/06/22 07:10:14;;;;;;;5.50;3.03;;;17.80;63.10;;;;;;4958063;28;20043;-88
2021/06/22 07:12:41;;;;;;;4.57;3.00;;;17.80;63.00;;;;;;4957908;28;20031;-86
2021/06/22 07:15:08;;;;;;;4.68;3.33;;;17.80;63.00;;;;;;4957972;28;20498;-84
2021/06/22 07:17:34;;;;;;;4.80;3.42;;;17.80;62.90;;;;;;4941581;28;20045;-85
2021/06/22 07:20:00;;;;;;;5.15;3.70;;;17.90;62.90;;;;;;4955443;28;20027;-84
2021/06/22 07:22:26;;;;;;;5.18;3.70;;;17.90;62.90;;;;;;4964670;28;20035;-84
2021/06/22 07:24:52;;;;;;;5.28;3.47;;;17.90;62.80;;;;;;4960271;28;20049;-83
2021/06/22 07:27:18;;;;;;;4.30;3.35;;;17.90;62.70;;;;;;4992034;28;20038;-85
2021/06/22 07:29:44;;;;;;;4.95;3.55;;;18.00;62.70;;;;;;4993912;28;20037;-84
2021/06/22 07:32:09;;;;;;;4.85;3.42;;;18.00;62.60;;;;;;4976745;28;20041;-85
2021/06/22 07:34:36;;;;;;;4.80;3.58;;;18.10;62.60;;;;;;4976741;28;20479;-84
2021/06/22 07:37:02;;;;;;;4.57;3.30;;;18.10;62.50;;;;;;4960474;28;20121;-84
2021/06/22 07:39:28;;;;;;;4.47;3.47;;;18.10;62.40;;;;;;4960162;28;20753;-85
2021/06/22 07:41:54;;;;;;;4.78;3.67;;;18.20;62.50;;;;;;4969985;28;20452;-85
2021/06/22 07:44:20;;;;;;;5.05;3.40;;;18.20;62.40;;;;;;4957244;28;20038;-87
2021/06/22 07:46:46;;;;;;;4.75;3.60;;;18.20;62.30;;;;;;4972186;28;20035;-85
2021/06/22 07:49:11;;;;;;;6.40;4.05;;;18.20;62.30;;;;;;4976516;28;20030;-86
2021/06/22 07:51:37;;;;;;;4.72;3.45;;;18.30;62.20;;;;;;4964579;28;20024;-85
2021/06/22 07:54:03;;;;;;;5.82;3.83;;;18.30;62.10;;;;;;4964485;28;20081;-87
2021/06/22 07:56:29;;;;;;;4.70;3.65;;;18.30;62.10;;;;;;4997481;28;20022;-85
2021/06/22 07:58:55;;;;;;;5.53;3.90;;;18.40;62.10;;;;;;4980744;28;20023;-85
2021/06/22 08:01:21;;;;;;;4.80;3.75;;;18.40;62.00;;;;;;4948729;28;20098;-88
2021/06/22 08:03:47;;;;;;;4.80;3.63;;;18.40;62.00;;;;;;4948907;28;20398;-86
2021/06/22 08:06:13;;;;;;;5.22;3.63;;;18.50;61.90;;;;;;4980160;28;20022;-86
2021/06/22 08:08:38;;;;;;;5.10;3.40;;;18.50;61.90;;;;;;4964501;28;20042;-86
2021/06/22 08:11:04;;;;;;;5.05;3.78;;;18.50;61.80;;;;;;4996109;28;20439;-86
2021/06/22 08:13:31;;;;;;;5.35;3.65;;;18.60;61.80;;;;;;4963856;28;20364;-85
2021/06/22 08:15:58;;;;;;;4.43;3.40;;;18.60;61.70;;;;;;4964534;28;20034;-85
2021/06/22 08:18:24;;;;;;;4.65;3.78;;;18.70;61.70;;;;;;4984152;28;20030;-85
2021/06/22 08:20:51;;;;;;;6.22;3.90;;;18.70;61.60;;;;;;4954839;28;20023;-86
2021/06/22 08:23:18;;;;;;;5.50;3.80;;;18.70;61.60;;;;;;4997128;28;20038;-86
2021/06/22 08:25:44;;;;;;;5.07;3.90;;;18.80;61.50;;;;;;4964043;28;20059;-86
2021/06/22 08:28:10;;;;;;;6.43;4.15;;;18.80;61.40;;;;;;4980338;28;20034;-85
2021/06/22 08:30:37;;;;;;;5.07;4.00;;;18.90;61.40;;;;;;4980397;28;20371;-86
2021/06/22 08:33:06;;;;;;;5.68;4.25;;;18.90;61.30;;;;;;4980366;28;20038;-85
2021/06/22 08:35:32;;;;;;;4.88;3.85;;;19.00;61.30;;;;;;4964086;28;20125;-85
2021/06/22 08:37:59;;;;;;;5.25;4.10;;;19.00;61.30;;;;;;4980146;28;20133;-85
2021/06/22 08:40:26;;;;;;;5.13;4.18;;;19.00;61.20;;;;;;4962881;28;20105;-83
2021/06/22 08:42:51;;;;;;;5.15;4.25;;;19.00;61.10;;;;;;4947651;28;20537;-83
2021/06/22 08:45:18;;;;;;;5.05;4.03;;;19.10;61.70;;;;;;4966916;28;20022;-84
2021/06/22 08:47:45;;;;;;;4.22;3.50;;;19.10;61.00;;;;;;4963673;28;20490;-85
2021/06/22 08:50:13;;;;;;;5.38;4.18;;;19.20;61.00;;;;;;4995675;28;20361;-84
2021/06/22 08:52:39;;;;;;;5.95;4.43;;;19.20;60.90;;;;;;4963371;28;20030;-85
2021/06/22 08:55:07;;;;;;;5.80;4.70;;;19.20;60.80;;;;;;4995562;28;20030;-86
2021/06/22 08:57:35;;;;;;;5.60;4.32;;;19.30;60.80;;;;;;4979374;28;20031;-87
2021/06/22 09:00:02;;;;;;;6.63;4.38;;;19.40;60.70;;;;;;4963388;28;20030;-87
2021/06/22 09:02:28;;;;;;;5.43;4.07;;;19.40;60.60;;;;;;4981006;28;20030;-86
2021/06/22 09:04:58;;;;;;;5.43;4.13;;;19.40;60.50;;;;;;4947506;28;20067;-86
2021/06/22 09:07:43;;;;;;;5.05;4.25;;;19.40;60.40;;;;;;4995024;28;20164;-88
2021/06/22 09:10:18;;;;;;;5.22;4.15;;;19.50;60.50;;;;;;4963360;28;20066;-86
2021/06/22 09:12:44;;;;;;;5.07;4.15;;;19.50;60.30;;;;;;4977678;28;20058;-87
2021/06/22 09:15:23;;;;;;;5.93;4.20;;;19.60;60.30;;;;;;4979045;28;20023;-87
2021/06/22 09:17:50;;;;;;;5.47;4.18;;;19.60;60.30;;;;;;4962603;28;20030;-85
2021/06/22 09:20:36;;;;;;;4.80;3.92;;;19.70;60.20;;;;;;4996480;28;20030;-86
2021/06/22 09:23:21;;;;;;;4.97;3.88;;;19.70;60.30;;;;;;4978973;28;20023;-85
2021/06/22 09:25:48;;;;;;;5.75;4.00;;;19.80;60.30;;;;;;4962719;28;20038;-86
2021/06/22 09:28:21;;;;;;;6.13;3.88;;;19.80;60.10;;;;;;4964532;28;20459;-86
2021/06/22 09:30:50;;;;;;;6.18;4.43;;;19.90;60.10;;;;;;4962843;28;20030;-84
2021/06/22 09:33:24;;;;;;;5.95;4.00;;;19.90;60.00;;;;;;4975613;28;20030;-87
2021/06/22 09:36:01;;;;;;;;;;;20.00;60.00;;;;;;5003058;28;20038;-84
2021/06/22 09:38:29;;;;;;;5.05;3.60;;;20.00;59.80;;;;;;4975242;28;19910;-86
2021/06/22 09:41:22;;;;;;;5.35;3.60;;;20.10;59.60;;;;;;4965457;28;20137;-86
2021/06/22 09:44:00;;;;;;;5.53;3.88;;;20.20;59.80;;;;;;4944175;28;20043;-85
2021/06/22 09:46:36;;;;;;;4.68;3.67;;;20.30;59.60;;;;;;4972730;28;20093;-86
2021/06/22 09:49:05;;;;;;;4.68;3.63;;;20.30;59.50;;;;;;4962574;28;20030;-85
2021/06/22 09:51:38;;;;;;;5.30;3.72;;;20.40;59.40;;;;;;4962177;28;20033;-85
2021/06/22 09:54:08;;;;;;;5.13;3.80;;;20.50;59.30;;;;;;4965890;28;20034;-88
2021/06/22 09:56:34;;;;;;;5.50;3.95;;;20.60;59.20;;;;;;4961923;28;20487;-84
2021/06/22 09:59:08;;;;;;;4.70;3.72;;;20.70;59.10;;;;;;4962173;28;20065;-87
2021/06/22 10:01:35;;;;;;;;;;;20.80;59.00;;;;;;4978497;28;20034;-86
2021/06/22 10:04:15;;;;;;;4.50;3.20;;;20.80;58.80;;;;;;4959248;28;19929;-84
2021/06/22 10:06:46;;;;;;;4.40;3.33;;;20.90;58.60;;;;;;4987179;28;20034;-86
2021/06/22 10:09:18;;;;;;;4.45;3.28;;;21.00;58.50;;;;;;4978484;28;20537;-87
2021/06/22 10:11:44;;;;;;;4.55;3.45;;;21.10;58.40;;;;;;4977649;28;20030;-86
2021/06/22 10:14:22;;;;;;;5.18;3.53;;;21.20;58.30;;;;;;4960982;28;20090;-85
2021/06/22 10:16:49;;;;;;;5.22;3.75;;;21.20;58.20;;;;;;4978528;28;20034;-86
2021/06/22 10:19:14;;;;;;;4.38;3.40;;;21.30;58.70;;;;;;4950711;28;20026;-86
2021/06/22 10:21:40;;;;;;;4.85;3.60;;;21.40;58.00;;;;;;4961475;28;20065;-86
2021/06/22 10:24:06;;;;;;;4.93;3.83;;;21.40;57.90;;;;;;4986514;28;20030;-87
2021/06/22 10:26:32;;;;;;;5.13;3.75;;;21.50;57.80;;;;;;4946161;28;20069;-87
2021/06/22 10:29:01;;;;;;;4.50;3.83;;;21.60;57.70;;;;;;4962053;28;20121;-85
2021/06/22 10:31:27;;;;;;;4.85;3.50;;;21.70;57.60;;;;;;4978475;28;20026;-85
2021/06/22 10:33:53;;;;;;;5.72;3.63;;;21.80;57.50;;;;;;4956488;28;20446;-85
2021/06/22 10:37:01;;;;;;;4.80;3.63;;;21.80;57.30;;;;;;4961664;28;20032;-84
2021/06/22 10:39:38;;;;;;;5.35;3.65;;;21.90;57.40;;;;;;4960279;28;20108;-86
2021/06/22 10:42:13;;;;;;;4.80;3.65;;;22.00;57.10;;;;;;4965573;28;20022;-85
2021/06/22 10:45:03;;;;;;;4.03;3.17;;;22.10;57.10;;;;;;4960810;28;20049;-83
2021/06/22 10:47:33;;;;;;;4.90;3.58;;;22.20;57.00;;;;;;4964636;28;20050;-84
2021/06/22 10:50:05;;;;;;;5.65;3.70;;;22.30;56.80;;;;;;4994411;28;20361;-84
2021/06/22 10:52:43;;;;;;;4.13;3.30;;;22.30;56.70;;;;;;4977063;28;20026;-85
2021/06/22 10:55:09;;;;;;;4.25;3.20;;;22.40;56.70;;;;;;4957304;28;20035;-85
2021/06/22 10:58:00;;;;;;;5.05;3.40;;;22.50;56.60;;;;;;4956962;28;20472;-85
2021/06/22 11:00:48;;;;;;;4.00;3.15;;;22.60;56.70;;;;;;4979326;28;20031;-86
2021/06/22 11:03:24;;;;;;;4.65;3.20;;;22.70;56.60;;;;;;4978918;28;20041;-81
2021/06/22 11:06:19;;;;;;;3.83;3.05;;;22.70;56.40;;;;;;4960415;28;20050;-84
2021/06/22 11:08:44;;;;;;;4.30;3.20;;;22.80;56.50;;;;;;4993152;28;20546;-86
2021/06/22 11:11:10;;;;;;;4.20;3.05;;;22.90;56.30;;;;;;4976958;28;20023;-83
2021/06/22 11:13:41;;;;;;;4.07;3.22;;;22.90;56.30;;;;;;4982939;28;20038;-84
2021/06/22 11:16:12;;;;;;;5.00;3.42;;;23.00;56.20;;;;;;4990333;28;20035;-82
2021/06/22 11:18:56;;;;;;;4.63;3.08;;;23.00;56.10;;;;;;4972418;28;20046;-82
2021/06/22 11:21:43;;;;;;;4.43;3.35;;;23.10;56.10;;;;;;4970572;28;20023;-82
2021/06/22 11:24:14;;;;;;;5.13;3.55;;;23.10;56.00;;;;;;4981452;28;20081;-83
2021/06/22 11:26:46;;;;;;;5.03;3.38;;;23.20;55.90;;;;;;4972125;28;20122;-81
2021/06/22 11:29:13;;;;;;;4.68;3.40;;;23.20;55.90;;;;;;4972965;28;20118;-82
2021/06/22 11:31:40;;;;;;;3.28;2.63;;;23.30;55.90;;;;;;4969953;28;20093;-87
2021/06/22 11:34:25;;;;;;;5.63;3.38;;;23.30;55.90;;;;;;4964435;28;20023;-88
2021/06/22 11:36:54;;;;;;;3.53;2.83;;;23.40;55.90;;;;;;4973156;28;20065;-84
2021/06/22 11:39:19;;;;;;;5.10;3.35;;;23.40;55.80;;;;;;4972670;28;20027;-83
2021/06/22 11:42:10;;;;;;;4.63;3.58;;;23.40;55.70;;;;;;4972848;28;20061;-84
2021/06/22 11:44:41;;;;;;;3.80;2.97;;;23.50;55.80;;;;;;4956853;28;20030;-85
2021/06/22 11:47:31;;;;;;;4.13;2.78;;;23.50;55.70;;;;;;4973083;28;20181;-86
2021/06/22 11:49:59;;;;;;;4.25;3.20;;;23.50;55.70;;;;;;4960451;28;20046;-85
2021/06/22 11:52:33;;;;;;;4.60;3.17;;;23.50;55.70;;;;;;4957368;28;20378;-85
2021/06/22 11:55:02;;;;;;;3.83;3.10;;;23.60;55.80;;;;;;4962426;28;20122;-84
2021/06/22 11:57:31;;;;;;;4.85;3.50;;;23.60;55.70;;;;;;4957122;28;20031;-84
2021/06/22 12:00:07;;;;;;;3.97;3.17;;;23.60;55.80;;;;;;4989279;28;20031;-85
2021/06/22 12:02:51;;;;;;;4.22;3.20;;;23.60;55.70;;;;;;4961057;28;20042;-84
2021/06/22 12:05:19;;;;;;;4.82;3.22;;;23.70;55.60;;;;;;4972236;28;20339;-83
2021/06/22 12:08:04;;;;;;;5.20;2.92;;;23.70;55.50;;;;;;4956708;28;20088;-84
2021/06/22 12:10:39;;;;;;;4.22;3.00;;;23.70;55.50;;;;;;4988899;28;20073;-85
2021/06/22 12:13:05;;;;;;;4.10;2.83;;;23.70;55.40;;;;;;4956661;28;20031;-82
2021/06/22 12:15:37;;;;;;;3.72;2.70;;;23.70;55.30;;;;;;4972928;28;20498;-84
2021/06/22 12:18:03;;;;;;;4.10;3.03;;;23.70;55.40;;;;;;4973763;28;20046;-83
2021/06/22 12:20:43;;;;;;;4.93;2.88;;;23.70;55.30;;;;;;4969868;28;20042;-84
2021/06/22 12:23:13;;;;;;;3.92;2.88;;;23.70;55.20;;;;;;4987591;28;20097;-84
2021/06/22 12:25:49;;;;;;;4.10;3.10;;;23.70;55.10;;;;;;4983108;28;20057;-84
2021/06/22 12:28:16;;;;;;;4.00;2.83;;;23.70;55.10;;;;;;4991409;28;20463;-84
2021/06/22 12:30:49;;;;;;;4.40;2.90;;;23.70;55.00;;;;;;4992594;28;20049;-85
2021/06/22 12:33:18;;;;;;;4.37;3.00;;;23.70;54.90;;;;;;4959894;28;20027;-85
2021/06/22 12:35:47;;;;;;;3.42;2.70;;;23.80;54.90;;;;;;4992745;28;20068;-84
2021/06/22 12:38:14;;;;;;;3.28;2.50;;;23.80;55.00;;;;;;4981339;28;20066;-84
2021/06/22 12:40:54;;;;;;;4.85;3.03;;;23.80;55.00;;;;;;4963008;28;20022;-85
2021/06/22 12:43:37;;;;;;;3.50;2.65;;;23.80;55.10;;;;;;4994026;28;20018;-83
2021/06/22 12:46:03;;;;;;;3.83;2.70;;;23.80;55.00;;;;;;4970260;28;20495;-82
2021/06/22 12:48:29;;;;;;;3.63;2.50;;;23.80;55.00;;;;;;4978937;28;20034;-84
2021/06/22 12:50:56;;;;;;;3.47;2.65;;;23.80;55.00;;;;;;4962781;28;20046;-85
2021/06/22 12:53:22;;;;;;;4.43;2.65;;;23.80;54.80;;;;;;4963004;28;20031;-83
2021/06/22 12:55:49;;;;;;;3.72;2.80;;;23.90;54.80;;;;;;4962847;28;20038;-82
2021/06/22 12:58:16;;;;;;;3.83;2.80;;;23.80;54.70;;;;;;4962832;28;20034;-83
2021/06/22 13:00:48;;;;;;;3.60;2.60;;;23.90;54.60;;;;;;4995929;28;20027;-85